createdAt,value
2022-10-18T00:00:10.242Z,48.3620
2022-10-18T00:01:12.454Z,48.3250
2022-10-18T00:02:14.685Z,48.3760
2022-10-18T00:03:16.766Z,48.3940
2022-10-18T00:04:18.967Z,48.4510
2022-10-18T00:05:21.170Z,48.3430
2022-10-18T00:06:23.431Z,48.4910
2022-10-18T00:07:23.449Z,48.4590
2022-10-18T00:08:25.666Z,48.4420
2022-10-18T00:09:27.871Z,48.4690
2022-10-18T00:10:30.081Z,48.4630
2022-10-18T00:11:32.294Z,48.5220
2022-10-18T00:12:34.497Z,48.4930
2022-10-18T00:13:36.706Z,48.5400
2022-10-18T00:14:38.924Z,48.4480
2022-10-18T00:15:41.180Z,48.4750
2022-10-18T00:16:41.324Z,48.4590
2022-10-18T00:17:43.558Z,48.4590
2022-10-18T00:18:45.782Z,48.4650
2022-10-18T00:19:47.995Z,48.4120
2022-10-18T00:20:50.206Z,48.5030
2022-10-18T00:21:50.294Z,48.4460
2022-10-18T00:22:52.450Z,48.4710
2022-10-18T00:23:54.647Z,48.3730
2022-10-18T00:24:56.852Z,48.3730
2022-10-18T00:25:59.065Z,48.2630
2022-10-18T00:27:01.280Z,48.3590
2022-10-18T00:28:03.416Z,48.4750
2022-10-18T00:29:05.631Z,48.4870
2022-10-18T00:30:07.830Z,48.4890
2022-10-18T00:31:10.098Z,48.4990
2022-10-18T00:32:12.380Z,48.5030
2022-10-18T00:33:14.617Z,48.5090
2022-10-18T00:34:16.878Z,48.5440
2022-10-18T00:35:19.139Z,48.5240
2022-10-18T00:36:21.400Z,48.5030
2022-10-18T00:37:23.693Z,48.4650
2022-10-18T00:38:25.905Z,48.4830
2022-10-18T00:39:26.013Z,48.4580
2022-10-18T00:40:28.270Z,48.4810
2022-10-18T00:41:30.435Z,48.4520
2022-10-18T00:42:32.857Z,48.5230
2022-10-18T00:43:34.766Z,48.5840
2022-10-18T00:44:36.983Z,48.3830
2022-10-18T00:45:39.165Z,48.3890
2022-10-18T00:46:41.387Z,48.4140
2022-10-18T00:47:43.642Z,48.3890
2022-10-18T00:48:45.911Z,48.4800
2022-10-18T00:49:45.904Z,48.3890
2022-10-18T00:50:48.158Z,48.3610
2022-10-18T00:51:50.424Z,48.2610
2022-10-18T00:52:52.718Z,48.3530
2022-10-18T00:53:54.938Z,48.3140
2022-10-18T00:54:57.180Z,48.3040
2022-10-18T00:55:59.370Z,48.3200
2022-10-18T00:57:01.582Z,48.3320
2022-10-18T00:58:03.835Z,48.2790
2022-10-18T00:59:06.034Z,48.3240
2022-10-18T01:00:08.298Z,48.3380
2022-10-18T01:01:10.551Z,48.2950
2022-10-18T01:02:12.830Z,48.3610
2022-10-18T01:03:15.033Z,48.3930
2022-10-18T01:04:17.221Z,48.3660
2022-10-18T01:05:19.448Z,48.3840
2022-10-18T01:06:21.661Z,48.3840
2022-10-18T01:07:23.914Z,48.2690
2022-10-18T01:08:26.171Z,48.2910
2022-10-18T01:09:28.412Z,48.3270
2022-10-18T01:10:30.640Z,48.4060
2022-10-18T01:11:32.901Z,48.3900
2022-10-18T01:12:35.150Z,48.3540
2022-10-18T01:13:37.427Z,48.3100
2022-10-18T01:14:39.629Z,48.3150
2022-10-18T01:15:41.922Z,48.2970
2022-10-18T01:16:44.146Z,48.3150
2022-10-18T01:17:46.409Z,48.3940
2022-10-18T01:18:46.576Z,48.3780
2022-10-18T01:19:48.806Z,48.3420
2022-10-18T01:20:51.070Z,48.2260
2022-10-18T01:21:53.276Z,48.3150
2022-10-18T01:22:55.443Z,48.3620
2022-10-18T01:23:55.486Z,48.3940
2022-10-18T01:24:57.739Z,48.4230
2022-10-18T01:25:59.842Z,48.4000
2022-10-18T01:27:02.035Z,48.3130
2022-10-18T01:28:04.224Z,48.3190
2022-10-18T01:29:06.572Z,48.4130
2022-10-18T01:30:08.640Z,48.3540
2022-10-18T01:31:10.925Z,48.3270
2022-10-18T01:32:13.159Z,48.3680
2022-10-18T01:33:15.400Z,48.4060
2022-10-18T01:34:17.684Z,48.4190
2022-10-18T01:35:19.927Z,48.4000
2022-10-18T01:36:22.194Z,48.4250
2022-10-18T01:37:22.300Z,48.4030
2022-10-18T01:38:24.568Z,48.4250
2022-10-18T01:39:26.835Z,48.3680
2022-10-18T01:40:29.021Z,48.3120
2022-10-18T01:42:48.494Z,48.1570
2022-10-18T01:43:50.624Z,47.9620
2022-10-18T01:44:52.811Z,47.8240
2022-10-18T01:45:54.941Z,47.7370
2022-10-18T01:46:57.157Z,47.7590
2022-10-18T01:47:59.336Z,47.7480
2022-10-18T01:49:01.544Z,47.6780
2022-10-18T01:50:03.751Z,47.5750
2022-10-18T01:51:05.864Z,47.5360
2022-10-18T01:53:11.221Z,47.6340
2022-10-18T01:54:12.398Z,47.6730
2022-10-18T01:55:14.599Z,47.6960
2022-10-18T01:56:16.768Z,47.7500
2022-10-18T01:57:16.810Z,47.7830
2022-10-18T01:58:19.017Z,47.7700
2022-10-18T01:59:21.194Z,47.7910
2022-10-18T02:00:23.404Z,47.7910
2022-10-18T02:01:25.512Z,47.7260
2022-10-18T02:02:27.689Z,47.5640
2022-10-18T02:03:29.857Z,47.5890
2022-10-18T02:04:32.052Z,47.7080
2022-10-18T02:05:34.296Z,47.6750
2022-10-18T02:06:36.439Z,47.7360
2022-10-18T02:07:38.623Z,47.7320
2022-10-18T02:08:40.822Z,47.6890
2022-10-18T02:09:43.023Z,47.6690
2022-10-18T02:10:45.246Z,47.6630
2022-10-18T02:11:47.416Z,47.7300
2022-10-18T02:12:49.613Z,47.7040
2022-10-18T02:13:51.822Z,47.7790
2022-10-18T02:14:54.030Z,47.7700
2022-10-18T02:15:56.208Z,47.7420
2022-10-18T02:16:56.155Z,47.6690
2022-10-18T02:17:58.289Z,47.6810
2022-10-18T02:19:00.362Z,47.6670
2022-10-18T02:20:02.413Z,47.6330
2022-10-18T02:21:04.563Z,47.6970
2022-10-18T02:22:06.643Z,47.6970
2022-10-18T02:23:08.787Z,47.6510
2022-10-18T02:24:10.966Z,47.5760
2022-10-18T02:25:13.168Z,47.6120
2022-10-18T02:26:15.396Z,47.6060
2022-10-18T02:27:17.577Z,47.6610
2022-10-18T02:28:19.833Z,47.6670
2022-10-18T02:29:21.973Z,47.6330
2022-10-18T02:30:24.173Z,47.6280
2022-10-18T02:31:26.392Z,47.6100
2022-10-18T02:32:28.902Z,47.6750
2022-10-18T02:33:30.820Z,47.6410
2022-10-18T02:34:30.856Z,47.6220
2022-10-18T02:35:33.047Z,47.6530
2022-10-18T02:36:35.271Z,47.5940
2022-10-18T02:37:37.425Z,47.5880
2022-10-18T02:38:39.582Z,47.6000
2022-10-18T02:39:41.758Z,47.5760
2022-10-18T02:40:43.957Z,47.6040
2022-10-18T02:41:46.136Z,47.5660
2022-10-18T02:42:48.298Z,47.6630
2022-10-18T02:43:50.482Z,47.7010
2022-10-18T02:44:52.691Z,47.6870
2022-10-18T02:45:54.898Z,47.7300
2022-10-18T02:46:57.171Z,47.7440
2022-10-18T02:47:59.332Z,47.7380
2022-10-18T02:49:01.569Z,47.6870
2022-10-18T02:50:03.830Z,47.6690
2022-10-18T02:51:06.056Z,47.7100
2022-10-18T02:52:06.136Z,47.6810
2022-10-18T02:53:08.317Z,47.6610
2022-10-18T02:54:10.526Z,47.6690
2022-10-18T02:55:12.724Z,47.6850
2022-10-18T02:56:14.909Z,47.7560
2022-10-18T02:57:17.141Z,47.7420
2022-10-18T02:58:19.306Z,47.7440
2022-10-18T02:59:21.555Z,47.7420
2022-10-18T03:00:23.753Z,47.7300
2022-10-18T03:01:26.063Z,47.6810
2022-10-18T03:02:28.228Z,47.7440
2022-10-18T03:03:30.435Z,47.7440
2022-10-18T03:04:32.691Z,47.7700
2022-10-18T03:05:34.853Z,47.7640
2022-10-18T03:06:37.057Z,47.7260
2022-10-18T03:07:37.157Z,47.7440
2022-10-18T03:08:39.314Z,47.6970
2022-10-18T03:09:41.516Z,47.7080
2022-10-18T03:10:43.730Z,47.7760
2022-10-18T03:11:45.931Z,47.7220
2022-10-18T03:12:48.138Z,47.7360
2022-10-18T03:13:50.335Z,47.7440
2022-10-18T03:14:52.561Z,47.7220
2022-10-18T03:15:54.817Z,47.6850
2022-10-18T03:16:57.076Z,47.8000
2022-10-18T03:17:59.288Z,47.7420
2022-10-18T03:19:01.517Z,47.7420
2022-10-18T03:20:03.767Z,47.6790
2022-10-18T03:21:06.008Z,47.7360
2022-10-18T03:22:06.133Z,47.7220
2022-10-18T03:23:08.454Z,47.7260
2022-10-18T03:24:10.683Z,47.6870
2022-10-18T03:25:12.966Z,47.6980
2022-10-18T03:26:15.229Z,47.6920
2022-10-18T03:27:17.459Z,47.6260
2022-10-18T03:28:19.763Z,47.7080
2022-10-18T03:29:19.835Z,47.7490
2022-10-18T03:30:22.110Z,47.7490
2022-10-18T03:31:24.432Z,47.8310
2022-10-18T03:32:26.644Z,47.8000
2022-10-18T03:33:28.920Z,47.9320
2022-10-18T03:34:31.156Z,47.9160
2022-10-18T03:35:33.437Z,47.5480
2022-10-18T03:36:35.676Z,47.4450
2022-10-18T03:37:37.926Z,47.2850
2022-10-18T03:38:38.054Z,47.0880
2022-10-18T03:39:40.277Z,47.0540
2022-10-18T03:40:42.470Z,46.9970
2022-10-18T03:41:44.723Z,46.9510
2022-10-18T03:42:46.978Z,46.9040
2022-10-18T03:43:49.267Z,46.9480
2022-10-18T03:44:51.513Z,46.8510
2022-10-18T03:45:53.766Z,47.0280
2022-10-18T03:46:56.030Z,46.8340
2022-10-18T03:47:56.167Z,46.7270
2022-10-18T03:48:58.448Z,46.5350
2022-10-18T03:50:00.621Z,46.5410
2022-10-18T03:51:02.846Z,46.4230
2022-10-18T03:52:04.990Z,46.3320
2022-10-18T03:53:07.201Z,46.4870
2022-10-18T03:54:09.454Z,46.7210
2022-10-18T03:55:11.609Z,46.6000
2022-10-18T03:56:13.791Z,45.9880
2022-10-18T03:57:16.027Z,46.0730
2022-10-18T03:58:17.099Z,46.2630
2022-10-18T03:59:19.314Z,46.6050
2022-10-18T04:00:21.490Z,46.9960
2022-10-18T04:01:23.789Z,47.4130
2022-10-18T04:02:26.020Z,47.3450
2022-10-18T04:03:28.205Z,47.4440
2022-10-18T04:04:30.470Z,47.3390
2022-10-18T04:05:32.651Z,47.2650
2022-10-18T04:06:34.885Z,47.2490
2022-10-18T04:08:39.247Z,47.1210
2022-10-18T04:09:41.546Z,47.3240
2022-10-18T04:10:41.608Z,47.2870
2022-10-18T04:11:43.846Z,46.9960
2022-10-18T04:12:46.130Z,46.9700
2022-10-18T04:13:48.398Z,46.9890
2022-10-18T04:14:48.547Z,46.9080
2022-10-18T04:15:50.802Z,46.7920
2022-10-18T04:16:53.087Z,46.8610
2022-10-18T04:17:55.344Z,46.7890
2022-10-18T04:18:55.470Z,46.7020
2022-10-18T04:19:57.787Z,46.8230
2022-10-18T04:21:00.042Z,46.8690
2022-10-18T04:22:02.346Z,46.9660
2022-10-18T04:23:02.450Z,46.9020
2022-10-18T04:24:04.688Z,46.8010
2022-10-18T04:25:06.987Z,46.7080
2022-10-18T04:26:09.198Z,46.6090
2022-10-18T04:27:11.473Z,46.5420
2022-10-18T04:28:13.732Z,46.5680
2022-10-18T04:29:15.970Z,46.6490
2022-10-18T04:30:18.244Z,46.7990
2022-10-18T04:31:20.448Z,46.8320
2022-10-18T04:32:22.652Z,46.9250
2022-10-18T04:33:24.894Z,46.8520
2022-10-18T04:34:27.143Z,46.8100
2022-10-18T04:35:27.297Z,46.8600
2022-10-18T04:36:29.544Z,46.8560
2022-10-18T04:37:31.996Z,47.0120
2022-10-18T04:38:33.945Z,46.9770
2022-10-18T04:39:36.110Z,46.8560
2022-10-18T04:40:38.349Z,46.9490
2022-10-18T04:41:40.545Z,46.9930
2022-10-18T04:42:42.850Z,46.8560
2022-10-18T04:44:47.269Z,46.9590
2022-10-18T04:45:49.520Z,46.9490
2022-10-18T04:46:51.736Z,47.0710
2022-10-18T04:47:53.921Z,47.1560
2022-10-18T04:48:56.128Z,47.2050
2022-10-18T04:49:58.363Z,47.4040
2022-10-18T04:51:00.649Z,47.5350
2022-10-18T04:52:02.831Z,47.5190
2022-10-18T04:53:05.070Z,47.6140
2022-10-18T04:54:07.270Z,47.5390
2022-10-18T04:55:09.505Z,47.5070
2022-10-18T04:56:11.769Z,47.5920
2022-10-18T04:57:13.975Z,47.6510
2022-10-18T04:58:14.067Z,47.6980
2022-10-18T04:59:16.292Z,47.7020
2022-10-18T05:00:18.526Z,47.6510
2022-10-18T05:01:21.231Z,47.6310
2022-10-18T05:02:23.009Z,47.6860
2022-10-18T05:03:25.224Z,47.7710
2022-10-18T05:04:27.464Z,47.7300
2022-10-18T05:05:49.619Z,47.8280
2022-10-18T05:06:31.932Z,47.8400
2022-10-18T05:07:34.121Z,47.7930
2022-10-18T05:08:36.319Z,47.8000
2022-10-18T05:09:38.495Z,47.8180
2022-10-18T05:10:40.695Z,47.8180
2022-10-18T05:11:42.928Z,47.8060
2022-10-18T05:12:45.079Z,47.8850
2022-10-18T05:13:50.055Z,48.0130
2022-10-18T05:14:49.371Z,48.1510
2022-10-18T05:15:51.540Z,48.1750
2022-10-18T05:16:53.812Z,48.2050
2022-10-18T05:17:55.958Z,48.1730
2022-10-18T05:18:58.170Z,48.1390
2022-10-18T05:20:00.524Z,48.1790
2022-10-18T05:21:02.607Z,48.1110
2022-10-18T05:22:02.712Z,48.0500
2022-10-18T05:23:04.916Z,48.1230
2022-10-18T05:24:07.144Z,48.1730
2022-10-18T05:25:09.363Z,48.1410
2022-10-18T05:26:11.591Z,48.1470
2022-10-18T05:27:11.706Z,48.0820
2022-10-18T05:28:38.192Z,48.1330
2022-10-18T05:29:16.118Z,48.2200
2022-10-18T05:30:18.239Z,48.1980
2022-10-18T05:31:20.492Z,48.2100
2022-10-18T05:32:20.622Z,48.1980
2022-10-18T05:33:22.825Z,48.2320
2022-10-18T05:34:25.075Z,48.2430
2022-10-18T05:35:27.302Z,48.1980
2022-10-18T05:36:29.483Z,48.1190
2022-10-18T05:37:29.606Z,48.1350
2022-10-18T05:38:31.951Z,48.1110
2022-10-18T05:39:34.067Z,48.1820
2022-10-18T05:40:36.283Z,48.2100
2022-10-18T05:41:38.504Z,48.2490
2022-10-18T05:42:40.744Z,48.2000
2022-10-18T05:43:42.911Z,48.1920
2022-10-18T05:44:45.147Z,48.1390
2022-10-18T05:45:47.370Z,48.1570
2022-10-18T05:46:47.444Z,48.1740
2022-10-18T05:47:49.727Z,48.2790
2022-10-18T05:48:51.956Z,48.3330
2022-10-18T05:49:54.209Z,48.3450
2022-10-18T05:50:54.313Z,48.3650
2022-10-18T05:51:56.566Z,48.5150
2022-10-18T05:53:06.939Z,48.5210
2022-10-18T05:54:01.061Z,48.5270
2022-10-18T05:55:03.323Z,48.4550
2022-10-18T05:56:05.552Z,48.4280
2022-10-18T05:57:07.791Z,48.4080
2022-10-18T05:58:10.058Z,48.4000
2022-10-18T05:59:12.449Z,48.3710
2022-10-18T06:00:14.437Z,48.3710
2022-10-18T06:01:16.668Z,48.3430
2022-10-18T06:02:18.971Z,48.4650
2022-10-18T06:03:21.245Z,48.4770
2022-10-18T06:04:23.479Z,48.4420
2022-10-18T06:05:25.807Z,48.3550
2022-10-18T06:06:27.988Z,48.3890
2022-10-18T06:07:28.105Z,48.4060
2022-10-18T06:08:30.403Z,48.4360
2022-10-18T06:09:32.615Z,48.4120
2022-10-18T06:10:34.873Z,48.4890
2022-10-18T06:11:37.129Z,48.4420
2022-10-18T06:12:39.379Z,48.4360
2022-10-18T06:13:41.617Z,48.5920
2022-10-18T06:14:43.792Z,48.6250
2022-10-18T06:15:46.014Z,48.6050
2022-10-18T06:16:48.223Z,48.4830
2022-10-18T06:17:50.445Z,48.5460
2022-10-18T06:18:52.733Z,48.5030
2022-10-18T06:19:54.949Z,48.5860
2022-10-18T06:20:57.177Z,48.6370
2022-10-18T06:21:59.385Z,48.6740
2022-10-18T06:23:01.643Z,48.5760
2022-10-18T06:24:03.885Z,48.4530
2022-10-18T06:25:03.953Z,48.4000
2022-10-18T06:26:06.219Z,48.2920
2022-10-18T06:27:08.449Z,48.3040
2022-10-18T06:28:12.266Z,48.3120
2022-10-18T06:29:13.058Z,48.3040
2022-10-18T06:30:15.173Z,48.3430
2022-10-18T06:31:17.417Z,48.3830
2022-10-18T06:32:19.662Z,48.4420
2022-10-18T06:33:21.901Z,48.4180
2022-10-18T06:34:24.172Z,48.4060
2022-10-18T06:35:26.376Z,48.4710
2022-10-18T06:36:28.574Z,48.4240
2022-10-18T06:37:31.228Z,48.3360
2022-10-18T06:38:33.050Z,48.3490
2022-10-18T06:39:35.328Z,48.3240
2022-10-18T06:40:37.498Z,48.3650
2022-10-18T06:41:39.724Z,48.3120
2022-10-18T06:42:42.462Z,48.2860
2022-10-18T06:43:44.064Z,48.2860
2022-10-18T06:44:46.343Z,48.2730
2022-10-18T06:45:48.511Z,48.3080
2022-10-18T06:46:50.738Z,48.2980
2022-10-18T06:47:52.949Z,48.2800
2022-10-18T06:48:55.151Z,48.2730
2022-10-18T06:49:57.394Z,48.2550
2022-10-18T06:50:59.555Z,48.2430
2022-10-18T06:51:59.608Z,48.2800
2022-10-18T06:53:01.809Z,48.2550
2022-10-18T06:54:17.352Z,48.2490
2022-10-18T06:55:09.144Z,48.2960
2022-10-18T06:56:08.392Z,48.3530
2022-10-18T06:57:10.585Z,48.2920
2022-10-18T06:58:12.784Z,48.2750
2022-10-18T06:59:15.006Z,48.3260
2022-10-18T07:00:17.255Z,48.2790
2022-10-18T07:01:19.503Z,48.2330
2022-10-18T07:02:19.435Z,48.1880
2022-10-18T07:03:21.635Z,48.1880
2022-10-18T07:04:23.845Z,48.1600
2022-10-18T07:05:26.124Z,48.1470
2022-10-18T07:06:28.282Z,48.1820
2022-10-18T07:07:28.534Z,48.1450
2022-10-18T07:08:30.671Z,48.1330
2022-10-18T07:09:32.842Z,48.1760
2022-10-18T07:10:35.101Z,48.1170
2022-10-18T07:11:37.269Z,48.0540
2022-10-18T07:12:37.422Z,48.0840
2022-10-18T07:13:39.691Z,48.0420
2022-10-18T07:14:41.975Z,48.1510
2022-10-18T07:15:44.328Z,48.1350
2022-10-18T07:16:46.558Z,48.0910
2022-10-18T07:17:48.804Z,48.0420
2022-10-18T07:18:51.068Z,48.0380
2022-10-18T07:19:53.321Z,48.0320
2022-10-18T07:20:55.615Z,47.9890
2022-10-18T07:21:57.844Z,48.0260
2022-10-18T07:23:00.114Z,47.9960
2022-10-18T07:24:00.223Z,47.9960
2022-10-18T07:25:02.486Z,47.9890
2022-10-18T07:26:04.737Z,48.0040
2022-10-18T07:27:06.943Z,48.1040
2022-10-18T07:28:09.215Z,48.1800
2022-10-18T07:29:11.472Z,48.1740
2022-10-18T07:30:13.658Z,48.1450
2022-10-18T07:31:15.959Z,48.0880
2022-10-18T07:32:18.145Z,48.0940
2022-10-18T07:33:20.381Z,48.0670
2022-10-18T07:34:22.615Z,48.0820
2022-10-18T07:35:24.841Z,48.1010
2022-10-18T07:36:27.109Z,48.0320
2022-10-18T07:37:30.206Z,48.0660
2022-10-18T07:38:31.526Z,48.1190
2022-10-18T07:39:33.761Z,48.0320
2022-10-18T07:40:35.930Z,48.0180
2022-10-18T07:41:35.972Z,48.0480
2022-10-18T07:42:38.188Z,48.0540
2022-10-18T07:43:40.457Z,48.0840
2022-10-18T07:44:42.678Z,48.1170
2022-10-18T07:45:44.912Z,48.2100
2022-10-18T07:46:47.182Z,48.1410
2022-10-18T07:47:49.394Z,48.1110
2022-10-18T07:48:51.640Z,48.1510
2022-10-18T07:49:53.884Z,47.3330
2022-10-18T07:50:56.198Z,49.8420
2022-10-18T07:51:58.488Z,51.3110
2022-10-18T07:53:00.750Z,52.0180
2022-10-18T07:54:00.928Z,52.3260
2022-10-18T07:55:03.219Z,52.0340
2022-10-18T07:56:08.573Z,52.0290
2022-10-18T07:57:07.879Z,52.2600
2022-10-18T07:58:10.201Z,52.3000
2022-10-18T07:59:12.493Z,52.3330
2022-10-18T08:00:14.734Z,52.7360
2022-10-18T08:01:17.152Z,53.5070
2022-10-18T08:02:19.377Z,53.6990
2022-10-18T08:03:21.664Z,53.1330
2022-10-18T08:04:23.931Z,53.2700
2022-10-18T08:05:26.226Z,53.2010
2022-10-18T08:06:28.544Z,52.6720
2022-10-18T08:07:28.985Z,52.3480
2022-10-18T08:08:31.046Z,52.2880
2022-10-18T08:09:33.370Z,52.5600
2022-10-18T08:10:35.705Z,52.3860
2022-10-18T08:11:38.026Z,51.9020
2022-10-18T08:12:40.400Z,51.6380
2022-10-18T08:13:40.519Z,52.0730
2022-10-18T08:14:42.861Z,52.3850
2022-10-18T08:15:45.166Z,52.5400
2022-10-18T08:16:47.489Z,52.7550
2022-10-18T08:17:49.839Z,52.7280
2022-10-18T08:18:52.085Z,52.5840
2022-10-18T08:20:11.668Z,52.2810
2022-10-18T08:20:54.466Z,52.1920
2022-10-18T08:21:56.766Z,52.3640
2022-10-18T08:23:00.358Z,52.2010
2022-10-18T08:24:01.359Z,51.8930
2022-10-18T08:25:01.495Z,51.6510
2022-10-18T08:26:03.793Z,51.8110
2022-10-18T08:27:06.050Z,52.4930
2022-10-18T08:28:08.353Z,52.4160
2022-10-18T08:29:22.994Z,52.3460
2022-10-18T08:30:10.771Z,52.5250
2022-10-18T08:31:13.030Z,52.5500
2022-10-18T08:32:15.350Z,52.3970
2022-10-18T08:33:17.625Z,52.3170
2022-10-18T08:34:20.134Z,52.5310
2022-10-18T08:35:22.195Z,52.4530
2022-10-18T08:36:22.352Z,52.3710
2022-10-18T08:37:24.600Z,52.3690
2022-10-18T08:38:26.934Z,52.1990
2022-10-18T08:39:29.152Z,52.5660
2022-10-18T08:40:29.303Z,52.5880
2022-10-18T08:41:31.543Z,52.3500
2022-10-18T08:42:34.411Z,52.3540
2022-10-18T08:44:36.247Z,52.5230
2022-10-18T08:45:42.273Z,52.6220
2022-10-18T08:46:40.838Z,52.5160
2022-10-18T08:47:43.138Z,52.4150
2022-10-18T08:48:45.454Z,52.9330
2022-10-18T08:49:47.733Z,53.1530
2022-10-18T08:50:49.951Z,52.9070
2022-10-18T08:51:50.049Z,52.3330
2022-10-18T08:52:52.331Z,52.0000
2022-10-18T08:53:54.634Z,51.9850
2022-10-18T08:54:56.911Z,52.1610
2022-10-18T08:55:57.073Z,52.6470
2022-10-18T08:56:59.377Z,52.8720
2022-10-18T08:59:01.899Z,53.0050
2022-10-18T09:00:04.059Z,52.7110
2022-10-18T09:01:06.337Z,52.5360
2022-10-18T09:02:06.394Z,52.4690
2022-10-18T09:03:08.657Z,52.5070
2022-10-18T09:04:10.890Z,52.1500
2022-10-18T09:05:13.099Z,52.0470
2022-10-18T09:06:17.666Z,51.7970
2022-10-18T09:07:17.572Z,51.7270
2022-10-18T09:08:19.804Z,51.4480
2022-10-18T09:09:22.068Z,51.3010
2022-10-18T09:10:24.227Z,51.2060
2022-10-18T09:11:26.478Z,50.7300
2022-10-18T09:12:28.910Z,50.8700
2022-10-18T09:13:30.801Z,50.9660
2022-10-18T09:14:33.090Z,50.9920
2022-10-18T09:15:33.208Z,50.9530
2022-10-18T09:16:35.465Z,50.6630
2022-10-18T09:17:37.664Z,50.9190
2022-10-18T09:18:39.900Z,50.9930
2022-10-18T09:19:42.104Z,51.1640
2022-10-18T09:20:44.292Z,51.3020
2022-10-18T09:21:46.509Z,51.3600
2022-10-18T09:22:48.724Z,51.1270
2022-10-18T09:23:50.935Z,50.9080
2022-10-18T09:24:53.215Z,50.4060
2022-10-18T09:25:55.334Z,49.9380
2022-10-18T09:26:57.541Z,49.7050
2022-10-18T09:27:59.719Z,49.7430
2022-10-18T09:29:02.074Z,49.7250
2022-10-18T09:30:04.154Z,49.7560
2022-10-18T09:31:06.281Z,49.7030
2022-10-18T09:32:08.496Z,49.9070
2022-10-18T09:33:09.498Z,49.8010
2022-10-18T09:34:13.852Z,49.7680
2022-10-18T09:35:15.076Z,49.9910
2022-10-18T09:36:17.181Z,50.0900
2022-10-18T09:37:17.231Z,49.8130
2022-10-18T09:38:19.521Z,49.5880
2022-10-18T09:39:21.643Z,49.5350
2022-10-18T09:40:23.882Z,49.3690
2022-10-18T09:41:26.041Z,49.2080
2022-10-18T09:42:28.259Z,49.1160
2022-10-18T09:43:30.438Z,49.1730
2022-10-18T09:44:32.649Z,49.1650
2022-10-18T09:45:34.897Z,49.1590
2022-10-18T09:46:37.043Z,49.1120
2022-10-18T09:47:39.249Z,48.9920
2022-10-18T09:48:41.441Z,48.9530
2022-10-18T09:49:43.647Z,48.8710
2022-10-18T09:50:45.823Z,48.6730
2022-10-18T09:51:47.976Z,48.7470
2022-10-18T09:52:50.190Z,48.7020
2022-10-18T09:53:52.354Z,48.7080
2022-10-18T09:54:54.547Z,48.6510
2022-10-18T09:55:56.785Z,48.6380
2022-10-18T09:56:58.953Z,48.6380
2022-10-18T09:57:59.023Z,48.7530
2022-10-18T09:59:01.202Z,48.6710
2022-10-18T10:00:03.403Z,48.5520
2022-10-18T10:01:05.597Z,48.4740
2022-10-18T10:02:07.763Z,48.4230
2022-10-18T10:03:09.874Z,48.4070
2022-10-18T10:04:11.996Z,48.3440
2022-10-18T10:05:14.201Z,48.2670
2022-10-18T10:06:16.420Z,48.2970
2022-10-18T10:07:18.592Z,48.4460
2022-10-18T10:08:20.811Z,48.3420
2022-10-18T10:09:22.998Z,48.3260
2022-10-18T10:10:25.214Z,48.2890
2022-10-18T10:11:27.450Z,48.2340
2022-10-18T10:12:29.584Z,48.3030
2022-10-18T10:13:31.767Z,48.2630
2022-10-18T10:14:33.969Z,48.2270
2022-10-18T10:15:38.172Z,48.2330
2022-10-18T10:16:38.409Z,48.2570
2022-10-18T10:17:40.574Z,48.2490
2022-10-18T10:18:42.798Z,48.2150
2022-10-18T10:19:42.838Z,48.2110
2022-10-18T10:20:45.046Z,48.1680
2022-10-18T10:21:47.270Z,48.1230
2022-10-18T10:22:49.451Z,48.1470
2022-10-18T10:23:51.639Z,48.1700
2022-10-18T10:24:53.844Z,48.0500
2022-10-18T10:25:56.036Z,47.9400
2022-10-18T10:26:58.204Z,47.8940
2022-10-18T10:28:00.344Z,47.9630
2022-10-18T10:29:02.640Z,47.9840
2022-10-18T10:30:07.328Z,47.9210
2022-10-18T10:31:07.111Z,47.9370
2022-10-18T10:32:09.374Z,47.9430
2022-10-18T10:33:11.579Z,47.9490
2022-10-18T10:34:13.829Z,48.0060
2022-10-18T10:35:22.747Z,47.9960
2022-10-18T10:36:16.061Z,48.0790
2022-10-18T10:37:18.334Z,48.0770
2022-10-18T10:38:20.512Z,48.2430
2022-10-18T10:39:22.738Z,48.2620
2022-10-18T10:40:27.795Z,48.2520
2022-10-18T10:41:25.107Z,48.3330
2022-10-18T10:42:27.264Z,48.3370
2022-10-18T10:43:43.019Z,48.2740
2022-10-18T10:44:29.505Z,48.2610
2022-10-18T10:45:31.734Z,48.0720
2022-10-18T10:46:33.966Z,48.1290
2022-10-18T10:47:36.251Z,48.1920
2022-10-18T10:48:38.500Z,48.2510
2022-10-18T10:49:41.440Z,48.3180
2022-10-18T10:50:42.928Z,48.3040
2022-10-18T10:51:45.268Z,48.2430
2022-10-18T10:52:47.424Z,48.2680
2022-10-18T10:53:49.649Z,48.2900
2022-10-18T10:54:53.882Z,48.1860
2022-10-18T10:55:54.059Z,48.0780
2022-10-18T10:56:54.146Z,48.1110
2022-10-18T10:57:56.424Z,48.1540
2022-10-18T10:58:58.642Z,48.2780
2022-10-18T11:00:00.778Z,48.1010
2022-10-18T11:01:03.051Z,47.8500
2022-10-18T11:02:05.170Z,47.9980
2022-10-18T11:03:27.291Z,48.1660
2022-10-18T11:04:09.676Z,48.1760
2022-10-18T11:05:11.761Z,48.0380
2022-10-18T11:06:13.908Z,47.8910
2022-10-18T11:07:16.056Z,47.9140
2022-10-18T11:08:21.744Z,47.9340
2022-10-18T11:09:20.466Z,47.9040
2022-10-18T11:10:22.658Z,47.7310
2022-10-18T11:11:24.844Z,47.9260
2022-10-18T11:12:27.091Z,48.0820
2022-10-18T11:13:29.358Z,48.0440
2022-10-18T11:14:31.597Z,47.9450
2022-10-18T11:15:31.681Z,47.8680
2022-10-18T11:16:33.945Z,47.8230
2022-10-18T11:17:36.212Z,47.6970
2022-10-18T11:18:38.507Z,47.7010
2022-10-18T11:19:40.779Z,47.7850
2022-10-18T11:20:43.020Z,47.7640
2022-10-18T11:21:45.232Z,47.4740
2022-10-18T11:22:47.439Z,47.4030
2022-10-18T11:23:49.666Z,47.5590
2022-10-18T11:24:49.773Z,47.5570
2022-10-18T11:25:52.027Z,47.4970
2022-10-18T11:26:54.365Z,47.4970
2022-10-18T11:27:56.541Z,47.6260
2022-10-18T11:28:58.905Z,47.6670
2022-10-18T11:30:01.052Z,47.6730
2022-10-18T11:31:03.320Z,47.6570
2022-10-18T11:32:05.591Z,47.7100
2022-10-18T11:33:05.721Z,47.5650
2022-10-18T11:34:09.548Z,47.4850
2022-10-18T11:35:10.256Z,47.4020
2022-10-18T11:36:12.582Z,47.4080
2022-10-18T11:37:27.742Z,47.4610
2022-10-18T11:38:17.037Z,47.6780
2022-10-18T11:39:19.320Z,47.7310
2022-10-18T11:40:21.562Z,47.8530
2022-10-18T11:41:23.825Z,47.8180
2022-10-18T11:42:23.932Z,47.8650
2022-10-18T11:43:30.228Z,47.9630
2022-10-18T11:44:28.488Z,47.9810
2022-10-18T11:46:32.878Z,47.8910
2022-10-18T11:47:35.395Z,47.9400
2022-10-18T11:48:37.359Z,47.8930
2022-10-18T11:49:39.623Z,47.8940
2022-10-18T11:50:41.818Z,47.8410
2022-10-18T11:52:06.632Z,47.8470
2022-10-18T11:52:44.170Z,47.9890
2022-10-18T11:53:51.634Z,47.8450
2022-10-18T11:56:05.880Z,47.8820
2022-10-18T11:57:07.992Z,47.9200
2022-10-18T11:58:10.196Z,47.9450
2022-10-18T11:59:12.401Z,47.9080
2022-10-18T12:00:12.454Z,47.9390
2022-10-18T12:01:14.701Z,48.0260
2022-10-18T12:02:16.918Z,47.9640
2022-10-18T12:03:19.059Z,47.6530
2022-10-18T12:04:21.255Z,47.6730
2022-10-18T12:05:24.515Z,47.6850
2022-10-18T12:06:25.675Z,47.7360
2022-10-18T12:07:32.343Z,47.7790
2022-10-18T12:08:30.043Z,47.8640
2022-10-18T12:09:32.239Z,47.8540
2022-10-18T12:10:44.423Z,47.8820
2022-10-18T12:11:36.631Z,47.9050
2022-10-18T12:12:38.775Z,47.8250
2022-10-18T12:13:40.959Z,47.8400
2022-10-18T12:14:43.144Z,47.8600
2022-10-18T12:15:45.341Z,47.8420
2022-10-18T12:16:51.356Z,47.8300
2022-10-18T12:17:50.305Z,47.8800
2022-10-18T12:19:54.135Z,47.8200
2022-10-18T12:20:56.315Z,47.7950
2022-10-18T12:21:58.571Z,47.6010
2022-10-18T12:22:58.577Z,47.5770
2022-10-18T12:24:00.769Z,47.6400
2022-10-18T12:25:02.958Z,47.6700
2022-10-18T12:26:05.172Z,47.7080
2022-10-18T12:27:07.434Z,47.7080
2022-10-18T12:28:09.605Z,47.4980
2022-10-18T12:29:11.828Z,47.2100
2022-10-18T12:30:14.049Z,47.2770
2022-10-18T12:31:16.186Z,47.1470
2022-10-18T12:32:18.412Z,47.2480
2022-10-18T12:33:28.129Z,47.2850
2022-10-18T12:34:22.764Z,47.0160
2022-10-18T12:35:25.008Z,47.0440
2022-10-18T12:36:27.260Z,46.9610
2022-10-18T12:37:29.758Z,46.9170
2022-10-18T12:38:29.622Z,46.7780
2022-10-18T12:39:43.964Z,47.0480